Terminal Aerodrome Forecast
Issued by NWS

Home | Current Version | Previous Version | Text Only | Print | Product List | Glossary On
Versions: 1 2 3 4 5 6 7 8 9 10 11 12 13 14 15 16 17 18 19 20 21 22 23 24 25 26
000
FTUS42 KJAX 312352
TAFVQQ
TAF
KVQQ 312352Z 0100/0124 21005KT P6SM SCT040 BKN200
     FM011300 23008KT P6SM SCT030
     FM011800 22010KT P6SM VCTS BKN035CB PROB30 0118/0123 2SM TSRA
      BKN025CB=

USA.gov is the U.S. government's official web portal to all federal, state and local government web resources and services.